createdAt,value
2018-03-15T00:00:33.574Z,78.85
2018-03-15T00:01:34.496Z,79.61
2018-03-15T00:03:29.520Z,79.04
2018-03-15T00:04:29.493Z,79.33
2018-03-15T00:06:25.454Z,79.52
2018-03-15T00:07:26.439Z,79.71
2018-03-15T00:09:21.453Z,79.33
2018-03-15T00:10:21.368Z,79.23
2018-03-15T00:12:17.350Z,79.61
2018-03-15T00:13:17.307Z,79.52
2018-03-15T00:15:13.274Z,79.23
2018-03-15T00:16:13.220Z,79.14
2018-03-15T00:18:09.683Z,79.52
2018-03-15T00:19:09.176Z,79.23
2018-03-15T00:21:05.136Z,79.14
2018-03-15T00:22:05.630Z,79.23
2018-03-15T00:24:02.049Z,79.61
2018-03-15T00:25:01.042Z,79.04
2018-03-15T00:26:57.010Z,78.95
2018-03-15T00:27:56.973Z,79.52
2018-03-15T00:29:53.912Z,79.33
2018-03-15T00:30:53.424Z,79.14
2018-03-15T00:32:50.341Z,79.99
2018-03-15T00:33:49.826Z,79.42
2018-03-15T00:35:45.753Z,79.90
2018-03-15T00:36:46.272Z,79.99
2018-03-15T00:38:41.637Z,79.04
2018-03-15T00:39:41.690Z,79.52
2018-03-15T00:41:37.581Z,79.90
2018-03-15T00:42:37.566Z,79.23
2018-03-15T00:44:33.028Z,79.61
2018-03-15T00:45:33.526Z,79.42
2018-03-15T00:47:26.446Z,79.52
2018-03-15T00:48:26.402Z,79.42
2018-03-15T00:50:22.357Z,79.52
2018-03-15T00:51:22.353Z,79.33
2018-03-15T00:53:18.304Z,79.61
2018-03-15T00:54:18.263Z,79.42
2018-03-15T00:56:15.716Z,79.42
2018-03-15T00:57:14.723Z,79.61
2018-03-15T00:59:10.082Z,79.61
2018-03-15T01:00:10.096Z,79.71
2018-03-15T01:02:07.031Z,79.61
2018-03-15T01:03:06.020Z,79.80
2018-03-15T01:05:01.955Z,79.61
2018-03-15T01:06:01.939Z,79.71
2018-03-15T01:07:58.893Z,79.42
2018-03-15T01:08:58.389Z,80.08
2018-03-15T01:10:53.846Z,79.80
2018-03-15T01:11:53.813Z,79.52
2018-03-15T01:13:49.766Z,80.08
2018-03-15T01:14:50.273Z,80.08
2018-03-15T01:16:45.703Z,79.80
2018-03-15T01:17:46.188Z,79.61
2018-03-15T01:19:42.108Z,79.61
2018-03-15T01:20:41.607Z,79.71
2018-03-15T01:22:37.554Z,79.52
2018-03-15T01:23:36.042Z,79.90
2018-03-15T01:25:32.011Z,79.33
2018-03-15T01:26:31.943Z,79.42
2018-03-15T01:28:27.895Z,79.99
2018-03-15T01:29:27.834Z,80.18
2018-03-15T01:31:24.771Z,80.18
2018-03-15T01:32:24.779Z,79.52
2018-03-15T01:34:19.714Z,79.52
2018-03-15T01:35:19.725Z,79.52
2018-03-15T01:37:16.183Z,79.52
2018-03-15T01:38:15.700Z,79.71
2018-03-15T01:40:11.575Z,79.71
2018-03-15T01:41:11.575Z,79.52
2018-03-15T01:43:07.533Z,79.71
2018-03-15T01:44:08.029Z,79.61
2018-03-15T01:46:03.471Z,79.61
2018-03-15T01:47:03.422Z,79.61
2018-03-15T01:48:59.379Z,79.42
2018-03-15T01:49:59.859Z,79.42
2018-03-15T01:51:55.254Z,79.42
2018-03-15T01:52:56.184Z,79.61
2018-03-15T01:54:51.682Z,79.99
2018-03-15T01:55:51.678Z,79.90
2018-03-15T01:57:51.100Z,79.80
2018-03-15T01:58:50.104Z,79.71
2018-03-15T02:00:45.668Z,79.61
2018-03-15T02:01:45.116Z,79.80
2018-03-15T02:03:41.074Z,79.33
2018-03-15T02:04:42.491Z,79.42
2018-03-15T02:06:35.474Z,79.61
2018-03-15T02:07:35.481Z,79.42
2018-03-15T02:09:31.421Z,79.61
2018-03-15T02:10:31.413Z,79.52
2018-03-15T02:12:25.885Z,79.99
2018-03-15T02:13:25.826Z,79.80
2018-03-15T02:15:22.285Z,79.61
2018-03-15T02:16:21.786Z,79.61
2018-03-15T02:18:18.238Z,79.71
2018-03-15T02:19:17.665Z,79.71
2018-03-15T02:21:13.576Z,79.61
2018-03-15T02:22:13.594Z,79.52
2018-03-15T02:24:09.510Z,79.23
2018-03-15T02:25:09.504Z,79.23
2018-03-15T02:27:05.493Z,79.42
2018-03-15T02:28:05.980Z,79.42
2018-03-15T02:30:00.384Z,79.52
2018-03-15T02:31:00.379Z,79.61
2018-03-15T02:32:55.805Z,79.90
2018-03-15T02:33:55.782Z,79.14
2018-03-15T02:35:51.740Z,79.61
2018-03-15T02:36:51.701Z,79.61
2018-03-15T02:38:47.590Z,79.14
2018-03-15T02:39:47.604Z,78.85
2018-03-15T02:41:44.055Z,78.56
2018-03-15T02:42:43.527Z,79.04
2018-03-15T02:44:39.980Z,78.38
2018-03-15T02:45:39.963Z,78.85
2018-03-15T02:47:35.409Z,78.47
2018-03-15T02:48:35.382Z,78.28
2018-03-15T02:50:31.351Z,78.75
2018-03-15T02:51:31.848Z,78.09
2018-03-15T02:53:27.243Z,77.90
2018-03-15T02:54:27.756Z,78.00
2018-03-15T02:56:23.186Z,78.38
2018-03-15T02:57:23.164Z,78.38
2018-03-15T02:59:19.623Z,78.47
2018-03-15T03:00:19.106Z,78.56
2018-03-15T03:02:15.015Z,77.90
2018-03-15T03:03:15.545Z,77.90
2018-03-15T03:05:11.453Z,78.00
2018-03-15T03:06:10.941Z,78.00
2018-03-15T03:08:06.879Z,77.81
2018-03-15T03:09:06.879Z,77.52
2018-03-15T03:11:02.931Z,77.81
2018-03-15T03:12:02.813Z,78.28
2018-03-15T03:13:59.255Z,78.28
2018-03-15T03:14:58.737Z,78.00
2018-03-15T03:16:54.693Z,78.00
2018-03-15T03:17:55.174Z,77.81
2018-03-15T03:19:50.580Z,78.09
2018-03-15T03:20:50.591Z,77.52
2018-03-15T03:22:46.559Z,77.24
2018-03-15T03:23:46.530Z,77.52
2018-03-15T03:25:42.482Z,77.33
2018-03-15T03:26:42.443Z,76.48
2018-03-15T03:28:38.900Z,76.57
2018-03-15T03:29:38.332Z,76.57
2018-03-15T03:31:34.272Z,76.76
2018-03-15T03:32:34.260Z,76.67
2018-03-15T03:34:30.178Z,77.14
2018-03-15T03:35:30.182Z,76.95
2018-03-15T03:37:26.670Z,77.14
2018-03-15T03:38:26.638Z,77.05
2018-03-15T03:40:22.027Z,77.05
2018-03-15T03:41:22.033Z,76.86
2018-03-15T03:43:17.954Z,77.05
2018-03-15T03:44:18.490Z,76.86
2018-03-15T03:46:13.937Z,76.86
2018-03-15T03:47:14.404Z,76.86
2018-03-15T03:49:09.806Z,76.95
2018-03-15T03:50:09.798Z,76.67
2018-03-15T03:52:06.245Z,76.67
2018-03-15T03:53:05.703Z,76.86
2018-03-15T03:55:03.151Z,76.48
2018-03-15T03:56:01.634Z,76.67
2018-03-15T03:57:57.569Z,76.86
2018-03-15T03:58:57.560Z,77.01
2018-03-15T04:00:53.511Z,76.63
2018-03-15T04:01:54.011Z,76.39
2018-03-15T04:03:49.400Z,76.48
2018-03-15T04:04:49.409Z,76.76
2018-03-15T04:06:45.385Z,76.67
2018-03-15T04:07:45.847Z,76.34
2018-03-15T04:09:39.769Z,76.54
2018-03-15T04:10:40.301Z,76.63
2018-03-15T04:12:35.721Z,76.82
2018-03-15T04:13:36.226Z,76.54
2018-03-15T04:15:31.650Z,76.44
2018-03-15T04:17:48.599Z,76.54
2018-03-15T04:18:47.574Z,76.54
2018-03-15T04:20:43.487Z,76.63
2018-03-15T04:21:43.475Z,77.11
2018-03-15T04:23:41.421Z,76.54
2018-03-15T04:24:39.913Z,76.73
2018-03-15T04:26:35.386Z,76.44
2018-03-15T04:27:35.346Z,76.44
2018-03-15T04:29:31.790Z,77.01
2018-03-15T04:30:31.272Z,77.01
2018-03-15T04:32:27.196Z,77.01
2018-03-15T04:33:27.206Z,76.82
2018-03-15T04:35:22.629Z,76.92
2018-03-15T04:36:23.165Z,76.82
2018-03-15T04:38:18.526Z,77.11
2018-03-15T04:39:19.077Z,77.11
2018-03-15T04:41:14.430Z,76.92
2018-03-15T04:42:14.429Z,76.92
2018-03-15T04:44:10.877Z,77.11
2018-03-15T04:45:10.880Z,76.82
2018-03-15T04:47:06.280Z,77.11
2018-03-15T04:48:06.259Z,77.01
2018-03-15T04:50:02.220Z,77.11
2018-03-15T04:51:02.716Z,76.92
2018-03-15T04:52:58.125Z,77.01
2018-03-15T04:53:58.112Z,77.11
2018-03-15T04:55:54.067Z,76.63
2018-03-15T04:56:54.035Z,77.01
2018-03-15T04:58:50.491Z,77.01
2018-03-15T04:59:49.928Z,76.92
2018-03-15T05:01:46.378Z,77.01
2018-03-15T05:02:45.871Z,77.01
2018-03-15T05:04:41.795Z,76.82
2018-03-15T05:05:42.359Z,76.63
2018-03-15T05:07:37.728Z,77.11
2018-03-15T05:08:37.720Z,77.11
2018-03-15T05:10:33.652Z,76.63
2018-03-15T05:11:33.644Z,77.01
2018-03-15T05:13:29.579Z,76.92
2018-03-15T05:14:29.592Z,76.82
2018-03-15T05:16:24.526Z,76.92
2018-03-15T05:17:24.020Z,76.82
2018-03-15T05:19:20.454Z,76.54
2018-03-15T05:20:19.922Z,76.54
2018-03-15T05:22:14.871Z,77.11
2018-03-15T05:23:14.328Z,76.92
2018-03-15T05:25:10.279Z,76.63
2018-03-15T05:26:10.259Z,77.20
2018-03-15T05:31:16.458Z,76.63
2018-03-15T05:32:15.949Z,76.34
2018-03-15T05:34:21.875Z,76.15
2018-03-15T05:36:36.849Z,76.44
2018-03-15T05:37:36.811Z,76.54
2018-03-15T05:39:32.783Z,76.15
2018-03-15T05:41:49.189Z,76.63
2018-03-15T05:42:50.181Z,76.34
2018-03-15T05:44:45.149Z,76.25
2018-03-15T05:45:46.123Z,76.15
2018-03-15T05:47:41.065Z,76.54
2018-03-15T05:48:41.036Z,76.15
2018-03-15T05:51:22.079Z,76.15
2018-03-15T05:52:22.483Z,76.34
2018-03-15T05:54:17.574Z,76.34
2018-03-15T05:55:17.516Z,75.96
2018-03-15T05:57:25.472Z,76.01
2018-03-15T05:58:24.967Z,76.25
2018-03-15T06:01:19.896Z,76.01
2018-03-15T06:02:11.520Z,76.20
2018-03-15T06:04:09.985Z,76.48
2018-03-15T06:05:11.474Z,76.06
2018-03-15T06:07:04.039Z,75.53
2018-03-15T06:08:04.510Z,75.81
2018-03-15T06:10:00.934Z,75.72
2018-03-15T06:10:59.916Z,75.72
2018-03-15T06:13:07.368Z,75.62
2018-03-15T06:15:23.802Z,75.34
2018-03-15T06:16:24.307Z,75.62
2018-03-15T06:18:20.248Z,75.53
2018-03-15T06:19:18.734Z,75.43
2018-03-15T06:22:31.693Z,75.43
2018-03-15T06:23:30.464Z,75.53
2018-03-15T06:25:25.405Z,75.53
2018-03-15T06:26:24.903Z,74.96
2018-03-15T06:28:21.370Z,75.24
2018-03-15T06:29:21.345Z,75.24
2018-03-15T06:31:32.768Z,75.24
2018-03-15T06:32:33.746Z,74.58
2018-03-15T06:36:14.813Z,74.77
2018-03-15T06:38:30.257Z,74.77
2018-03-15T06:41:32.159Z,74.81
2018-03-15T06:42:32.145Z,74.87
2018-03-15T06:44:29.624Z,74.52
2018-03-15T06:45:29.574Z,74.81
2018-03-15T06:47:29.010Z,74.43
2018-03-15T06:48:25.017Z,74.81
2018-03-15T06:50:47.491Z,74.43
2018-03-15T06:51:47.998Z,74.05
2018-03-15T06:53:43.107Z,74.52
2018-03-15T06:54:44.593Z,74.24
2018-03-15T06:56:49.053Z,75.09
2018-03-15T06:57:49.093Z,74.71
2018-03-15T06:59:44.459Z,74.52
2018-03-15T07:00:44.453Z,74.71
2018-03-15T07:02:40.440Z,74.71
2018-03-15T07:03:40.434Z,74.71
2018-03-15T07:05:36.386Z,74.71
2018-03-15T07:06:36.357Z,74.62
2018-03-15T07:08:32.354Z,74.33
2018-03-15T07:09:32.256Z,74.24
2018-03-15T07:11:28.197Z,75.09
2018-03-15T07:12:28.183Z,74.52
2018-03-15T07:14:24.623Z,74.62
2018-03-15T07:15:24.096Z,74.71
2018-03-15T07:17:19.078Z,75.09
2018-03-15T07:18:18.553Z,74.05
2018-03-15T07:20:15.000Z,74.24
2018-03-15T07:21:14.481Z,74.15
2018-03-15T07:23:10.405Z,73.99
2018-03-15T07:24:10.398Z,74.24
2018-03-15T07:26:06.853Z,73.80
2018-03-15T07:27:06.359Z,73.61
2018-03-15T07:29:02.809Z,73.04
2018-03-15T07:30:02.282Z,73.04
2018-03-15T07:31:58.232Z,73.04
2018-03-15T07:32:58.181Z,73.23
2018-03-15T07:34:54.653Z,72.47
2018-03-15T07:35:54.636Z,73.23
2018-03-15T07:37:50.097Z,72.47
2018-03-15T07:38:50.074Z,72.56
2018-03-15T07:40:46.056Z,72.38
2018-03-15T07:41:45.992Z,72.09
2018-03-15T07:43:41.977Z,72.28
2018-03-15T07:44:42.453Z,71.66
2018-03-15T07:46:42.872Z,72.13
2018-03-15T07:47:42.875Z,71.75
2018-03-15T07:49:38.826Z,71.56
2018-03-15T07:50:38.796Z,71.37
2018-03-15T07:52:34.743Z,70.89
2018-03-15T07:53:34.737Z,71.18
2018-03-15T07:55:30.667Z,71.37
2018-03-15T07:56:30.658Z,70.99
2018-03-15T07:58:25.593Z,69.94
2018-03-15T07:59:24.528Z,69.94
2018-03-15T08:01:20.500Z,70.13
2018-03-15T08:02:21.991Z,70.07
2018-03-15T08:04:17.433Z,70.23
2018-03-15T08:05:16.928Z,69.85
2018-03-15T08:07:12.847Z,70.42
2018-03-15T08:08:12.862Z,70.26
2018-03-15T08:10:08.281Z,69.69
2018-03-15T08:13:02.692Z,69.60
2018-03-15T08:14:02.685Z,69.21
2018-03-15T08:15:58.655Z,68.55
2018-03-15T08:16:58.645Z,68.74
2018-03-15T08:18:54.616Z,68.27
2018-03-15T08:19:55.088Z,68.55
2018-03-15T08:21:50.999Z,68.55
2018-03-15T08:22:50.495Z,68.36
2018-03-15T08:24:46.429Z,67.79
2018-03-15T08:25:46.957Z,68.27
2018-03-15T08:27:42.386Z,67.50
2018-03-15T08:28:42.372Z,67.69
2018-03-15T08:30:42.830Z,67.63
2018-03-15T08:31:42.808Z,67.25
2018-03-15T08:33:38.758Z,67.07
2018-03-15T08:34:39.281Z,67.44
2018-03-15T08:36:34.700Z,66.87
2018-03-15T08:37:34.690Z,66.87
2018-03-15T08:39:28.644Z,66.78
2018-03-15T08:40:28.127Z,66.78
2018-03-15T08:42:21.657Z,66.68
2018-03-15T08:43:21.531Z,66.78
2018-03-15T08:45:16.003Z,66.97
2018-03-15T08:46:16.975Z,66.68
2018-03-15T08:48:10.940Z,66.14
2018-03-15T08:49:10.436Z,66.24
2018-03-15T08:51:06.372Z,66.43
2018-03-15T08:52:04.874Z,65.86
2018-03-15T08:54:00.852Z,65.67
2018-03-15T08:55:00.827Z,65.48
2018-03-15T08:56:55.260Z,65.48
2018-03-15T08:57:55.268Z,65.00
2018-03-15T08:59:49.709Z,65.19
2018-03-15T09:00:49.672Z,65.38
2018-03-15T09:02:46.134Z,64.90
2018-03-15T09:03:45.608Z,64.90
2018-03-15T09:05:39.065Z,64.05
2018-03-15T09:06:39.571Z,64.24
2018-03-15T09:08:35.017Z,63.76
2018-03-15T09:09:34.950Z,63.67
2018-03-15T09:11:29.913Z,63.86
2018-03-15T09:12:29.394Z,63.67
2018-03-15T09:14:24.849Z,63.32
2018-03-15T09:15:23.845Z,62.94
2018-03-15T09:17:19.812Z,62.94
2018-03-15T09:18:19.820Z,62.46
2018-03-15T09:20:14.208Z,62.65
2018-03-15T09:21:14.731Z,62.56
2018-03-15T09:23:08.697Z,62.37
2018-03-15T09:24:08.641Z,61.42
2018-03-15T09:26:03.069Z,61.04
2018-03-15T09:27:03.083Z,60.75
2018-03-15T09:28:57.039Z,60.94
2018-03-15T09:29:56.501Z,60.85
2018-03-15T09:31:50.954Z,61.07
2018-03-15T09:32:50.924Z,60.88
2018-03-15T09:34:46.302Z,60.59
2018-03-15T09:35:45.357Z,59.83
2018-03-15T09:37:39.318Z,59.54
2018-03-15T09:38:38.802Z,59.45
2018-03-15T09:40:33.335Z,58.97
2018-03-15T09:41:33.243Z,59.54
2018-03-15T09:43:27.722Z,58.87
2018-03-15T09:44:28.206Z,58.69
2018-03-15T09:46:22.643Z,58.11
2018-03-15T09:47:22.130Z,58.30
2018-03-15T09:49:15.567Z,58.62
2018-03-15T09:50:15.561Z,58.72
2018-03-15T09:52:08.992Z,58.52
2018-03-15T09:53:09.009Z,58.43
2018-03-15T09:55:03.446Z,58.24
2018-03-15T09:56:04.382Z,58.04
2018-03-15T09:57:56.886Z,57.09
2018-03-15T09:58:56.882Z,56.90
2018-03-15T10:00:51.291Z,57.86
2018-03-15T10:01:51.304Z,57.67
2018-03-15T10:03:45.263Z,57.57
2018-03-15T10:04:44.737Z,57.57
2018-03-15T10:06:39.682Z,57.67
2018-03-15T10:07:39.175Z,57.28
2018-03-15T10:09:33.636Z,57.57
2018-03-15T10:10:33.600Z,57.86
2018-03-15T10:12:28.074Z,57.67
2018-03-15T10:13:28.045Z,57.48
2018-03-15T10:15:23.006Z,57.60
2018-03-15T10:16:22.498Z,57.03
2018-03-15T10:18:17.483Z,57.12
2018-03-15T10:19:16.900Z,56.46
2018-03-15T10:21:11.322Z,56.36
2018-03-15T10:22:11.364Z,56.26
2018-03-15T10:24:06.778Z,56.84
2018-03-15T10:25:13.610Z,56.07
2018-03-15T10:27:01.734Z,56.74
2018-03-15T10:28:01.742Z,55.88
2018-03-15T10:29:56.219Z,55.53
2018-03-15T10:30:56.231Z,55.62
2018-03-15T10:32:51.148Z,54.96
2018-03-15T10:33:51.152Z,54.57
2018-03-15T10:35:46.597Z,54.77
2018-03-15T10:36:45.087Z,54.57
2018-03-15T10:38:39.494Z,54.67
2018-03-15T10:39:39.507Z,54.48
2018-03-15T10:41:33.958Z,54.48
2018-03-15T10:42:34.473Z,54.77
2018-03-15T10:44:28.426Z,54.32
2018-03-15T10:45:28.386Z,54.50
2018-03-15T10:47:23.380Z,53.74
2018-03-15T10:48:22.838Z,54.22
2018-03-15T10:50:19.284Z,54.13
2018-03-15T10:51:18.786Z,53.17
2018-03-15T10:53:13.225Z,53.27
2018-03-15T10:54:13.214Z,53.17
2018-03-15T10:56:06.648Z,53.27
2018-03-15T10:57:06.651Z,52.88
2018-03-15T10:59:01.074Z,52.88
2018-03-15T11:00:01.178Z,52.88
2018-03-15T11:01:55.036Z,52.79
2018-03-15T11:02:55.033Z,52.69
2018-03-15T11:04:49.984Z,52.03
2018-03-15T11:05:49.005Z,52.79
2018-03-15T11:07:43.460Z,52.88
2018-03-15T11:08:43.953Z,52.22
2018-03-15T11:10:38.414Z,52.40
2018-03-15T11:11:38.108Z,52.40
2018-03-15T11:13:32.605Z,52.24
2018-03-15T11:14:32.569Z,51.48
2018-03-15T11:16:28.532Z,50.71
2018-03-15T11:17:28.498Z,51.00
2018-03-15T11:19:21.938Z,51.48
2018-03-15T11:20:21.963Z,51.19
2018-03-15T11:22:16.408Z,51.38
2018-03-15T11:23:16.904Z,51.38
2018-03-15T11:25:11.377Z,51.09
2018-03-15T11:26:11.348Z,50.71
2018-03-15T11:28:07.304Z,50.62
2018-03-15T11:29:06.799Z,50.81
2018-03-15T11:31:00.786Z,50.90
2018-03-15T11:32:00.258Z,50.81
2018-03-15T11:33:54.729Z,50.74
2018-03-15T11:34:54.713Z,49.98
2018-03-15T11:36:50.700Z,49.78
2018-03-15T11:37:50.666Z,49.59
2018-03-15T11:39:45.626Z,49.78
2018-03-15T11:40:45.120Z,49.02
2018-03-15T11:42:38.584Z,49.21
2018-03-15T11:43:38.591Z,48.93
2018-03-15T11:45:37.043Z,48.64
2018-03-15T11:46:36.540Z,49.78
2018-03-15T11:48:30.007Z,48.93
2018-03-15T11:49:29.985Z,49.69
2018-03-15T11:51:24.914Z,48.64
2018-03-15T11:52:24.414Z,49.11
2018-03-15T11:54:18.878Z,49.21
2018-03-15T11:55:18.852Z,48.64
2018-03-15T11:57:14.829Z,48.93
2018-03-15T11:58:14.807Z,49.40
2018-03-15T12:00:11.283Z,48.83
2018-03-15T12:01:10.750Z,48.73
2018-03-15T12:03:04.721Z,48.64
2018-03-15T12:04:04.198Z,48.73
2018-03-15T12:05:58.679Z,48.35
2018-03-15T12:06:58.657Z,48.54
2018-03-15T12:08:53.624Z,48.07
2018-03-15T12:09:53.083Z,48.44
2018-03-15T12:11:47.552Z,48.35
2018-03-15T12:12:48.023Z,48.44
2018-03-15T12:14:43.499Z,48.54
2018-03-15T12:15:43.965Z,48.73
2018-03-15T12:17:39.418Z,48.83
2018-03-15T12:18:39.421Z,48.35
2018-03-15T12:20:33.380Z,48.16
2018-03-15T12:21:32.853Z,48.25
2018-03-15T12:23:27.326Z,48.64
2018-03-15T12:24:27.294Z,49.11
2018-03-15T12:26:23.238Z,49.59
2018-03-15T12:27:23.755Z,49.69
2018-03-15T12:29:17.719Z,49.88
2018-03-15T12:30:17.684Z,49.40
2018-03-15T12:32:15.144Z,49.21
2018-03-15T12:33:13.664Z,49.88
2018-03-15T12:35:12.771Z,49.30
2018-03-15T12:36:11.744Z,49.49
2018-03-15T12:38:07.687Z,49.49
2018-03-15T12:39:06.691Z,49.78
2018-03-15T12:41:00.652Z,49.69
2018-03-15T12:41:59.652Z,49.49
2018-03-15T12:43:55.637Z,49.21
2018-03-15T12:44:55.635Z,49.11
2018-03-15T12:46:50.560Z,49.40
2018-03-15T12:47:50.042Z,49.40
2018-03-15T12:49:47.011Z,49.59
2018-03-15T12:50:45.994Z,49.69
2018-03-15T12:52:39.450Z,48.73
2018-03-15T12:53:39.459Z,48.73
2018-03-15T12:55:34.413Z,49.49
2018-03-15T12:56:34.398Z,49.38
2018-03-15T12:58:28.363Z,49.11
2018-03-15T12:59:28.299Z,49.38
2018-03-15T13:01:21.775Z,48.90
2018-03-15T13:02:22.254Z,49.40
2018-03-15T13:04:19.130Z,49.02
2018-03-15T13:05:17.686Z,49.21
2018-03-15T13:07:11.127Z,49.78
2018-03-15T13:08:11.140Z,49.69
2018-03-15T13:10:05.607Z,49.21
2018-03-15T13:11:05.580Z,49.40
2018-03-15T13:13:00.077Z,49.40
2018-03-15T13:14:00.029Z,49.40
2018-03-15T13:15:54.522Z,49.09
2018-03-15T13:16:54.516Z,49.38
2018-03-15T13:18:48.906Z,48.99
2018-03-15T13:19:48.920Z,49.47
2018-03-15T13:21:44.380Z,49.66
2018-03-15T13:22:43.366Z,49.38
2018-03-15T13:24:39.341Z,49.47
2018-03-15T13:25:39.322Z,49.66
2018-03-15T13:27:34.295Z,49.59
2018-03-15T13:28:33.791Z,49.59
2018-03-15T13:30:27.306Z,49.11
2018-03-15T13:31:27.277Z,49.78
2018-03-15T13:33:21.720Z,49.59
2018-03-15T13:34:21.753Z,49.21
2018-03-15T13:36:16.180Z,49.21
2018-03-15T13:37:16.205Z,49.78
2018-03-15T13:39:09.662Z,49.59
2018-03-15T13:40:09.587Z,48.93
2018-03-15T13:42:05.565Z,48.73
2018-03-15T13:43:05.549Z,48.64
2018-03-15T13:45:02.010Z,48.83
2018-03-15T13:46:01.488Z,48.73
2018-03-15T13:47:55.963Z,48.83
2018-03-15T13:48:55.933Z,49.11
2018-03-15T13:50:52.317Z,48.66
2018-03-15T13:51:50.385Z,48.93
2018-03-15T13:53:44.836Z,48.95
2018-03-15T13:54:43.915Z,49.14
2018-03-15T13:56:37.875Z,48.85
2018-03-15T13:57:37.369Z,48.38
2018-03-15T13:59:31.328Z,48.28
2018-03-15T14:00:30.839Z,48.47
2018-03-15T14:02:27.219Z,47.61
2018-03-15T14:03:26.305Z,47.42
2018-03-15T14:05:20.256Z,47.61
2018-03-15T14:06:20.765Z,46.66
2018-03-15T14:08:14.244Z,46.46
2018-03-15T14:09:14.182Z,46.08
2018-03-15T14:11:07.642Z,46.56
2018-03-15T14:12:07.643Z,46.37
2018-03-15T14:14:03.599Z,46.94
2018-03-15T14:15:02.601Z,47.03
2018-03-15T14:16:58.073Z,47.32
2018-03-15T14:17:59.044Z,46.94
2018-03-15T14:19:52.516Z,46.27
2018-03-15T14:20:51.496Z,46.56
2018-03-15T14:22:45.456Z,46.82
2018-03-15T14:23:45.456Z,46.53
2018-03-15T14:25:40.918Z,46.34
2018-03-15T14:26:39.398Z,46.53
2018-03-15T14:28:34.350Z,46.92
2018-03-15T14:29:33.851Z,46.63
2018-03-15T14:31:28.246Z,47.30
2018-03-15T14:32:28.257Z,47.39
2018-03-15T14:34:23.217Z,47.58
2018-03-15T14:35:22.698Z,47.20
2018-03-15T14:37:18.161Z,47.39
2018-03-15T14:38:17.145Z,47.39
2018-03-15T14:40:11.595Z,47.11
2018-03-15T14:41:11.605Z,47.11
2018-03-15T14:43:07.044Z,47.11
2018-03-15T14:44:06.554Z,47.20
2018-03-15T14:46:00.002Z,46.92
2018-03-15T14:46:59.494Z,47.30
2018-03-15T14:48:55.972Z,47.49
2018-03-15T14:49:56.381Z,47.68
2018-03-15T14:51:52.362Z,47.49
2018-03-15T14:52:51.862Z,48.54
2018-03-15T14:54:44.816Z,47.58
2018-03-15T14:55:46.249Z,47.49
2018-03-15T14:57:39.280Z,48.44
2018-03-15T14:58:39.274Z,47.78
2018-03-15T15:00:32.747Z,48.54
2018-03-15T15:01:34.219Z,48.54
2018-03-15T15:03:27.195Z,47.87
2018-03-15T15:04:27.160Z,46.92
2018-03-15T15:06:21.178Z,46.63
2018-03-15T15:07:21.121Z,45.96
2018-03-15T15:09:16.599Z,46.15
2018-03-15T15:10:16.562Z,46.34
2018-03-15T15:12:11.036Z,45.48
2018-03-15T15:13:11.022Z,46.15
2018-03-15T15:15:05.486Z,46.34
2018-03-15T15:16:05.966Z,46.15
2018-03-15T15:17:59.923Z,46.34
2018-03-15T15:19:00.414Z,46.34
2018-03-15T15:20:54.365Z,46.22
2018-03-15T15:21:54.340Z,46.32
2018-03-15T15:23:48.828Z,46.61
2018-03-15T15:24:49.317Z,46.70
2018-03-15T15:26:42.279Z,47.08
2018-03-15T15:27:42.752Z,46.51
2018-03-15T15:29:35.698Z,47.18
2018-03-15T15:30:36.703Z,47.27
2018-03-15T15:32:29.156Z,47.66
2018-03-15T15:33:29.157Z,48.33
2018-03-15T15:35:23.623Z,48.23
2018-03-15T15:36:23.594Z,48.13
2018-03-15T15:38:19.066Z,48.42
2018-03-15T15:39:18.563Z,48.80
2018-03-15T15:41:11.546Z,48.80
2018-03-15T15:42:12.463Z,49.28
2018-03-15T15:44:07.994Z,49.38
2018-03-15T15:45:07.475Z,49.47
2018-03-15T15:47:04.440Z,49.66
2018-03-15T15:48:02.442Z,49.64
2018-03-15T15:49:56.392Z,49.83
2018-03-15T15:50:55.877Z,49.83
2018-03-15T15:52:49.812Z,50.40
2018-03-15T15:53:50.326Z,50.21
2018-03-15T15:55:44.305Z,50.69
2018-03-15T15:56:44.765Z,50.69
2018-03-15T15:58:38.215Z,50.49
2018-03-15T15:59:37.662Z,50.12
2018-03-15T16:01:33.634Z,50.88
2018-03-15T16:02:34.124Z,50.88
2018-03-15T16:04:28.008Z,50.78
2018-03-15T16:05:28.578Z,50.69
2018-03-15T16:07:24.009Z,50.59
2018-03-15T16:08:23.512Z,50.69
2018-03-15T16:10:18.987Z,51.07
2018-03-15T16:11:18.952Z,50.88
2018-03-15T16:13:13.432Z,50.88
2018-03-15T16:14:12.417Z,50.88
2018-03-15T16:16:05.875Z,51.43
2018-03-15T16:17:05.869Z,51.33
2018-03-15T16:19:01.828Z,51.35
2018-03-15T16:20:01.774Z,51.54
2018-03-15T16:21:56.226Z,51.33
2018-03-15T16:22:55.715Z,51.52
2018-03-15T16:24:48.662Z,51.62
2018-03-15T16:25:49.166Z,51.62
2018-03-15T16:27:42.111Z,52.00
2018-03-15T16:28:42.597Z,52.38
2018-03-15T16:30:35.554Z,52.48
2018-03-15T16:31:36.040Z,52.38
2018-03-15T16:33:29.996Z,52.57
2018-03-15T16:34:30.488Z,52.38
2018-03-15T16:36:24.402Z,52.57
2018-03-15T16:37:24.452Z,52.76
2018-03-15T16:39:19.371Z,53.05
2018-03-15T16:40:19.373Z,53.05
2018-03-15T16:42:13.802Z,53.43
2018-03-15T16:43:13.855Z,53.43
2018-03-15T16:45:06.764Z,53.53
2018-03-15T16:46:06.714Z,53.72
2018-03-15T16:48:01.672Z,53.91
2018-03-15T16:49:01.162Z,54.10
2018-03-15T16:51:01.044Z,53.81
2018-03-15T16:51:59.616Z,54.19
2018-03-15T16:53:56.545Z,54.29
2018-03-15T16:54:55.552Z,54.48
2018-03-15T16:56:49.586Z,53.62
2018-03-15T16:57:49.531Z,53.91
2018-03-15T16:59:44.488Z,54.10
2018-03-15T17:00:44.978Z,54.77
2018-03-15T17:02:37.956Z,54.19
2018-03-15T17:03:37.440Z,54.48
2018-03-15T17:05:33.421Z,54.57
2018-03-15T17:06:33.377Z,54.48
2018-03-15T17:08:26.849Z,54.77
2018-03-15T17:09:26.804Z,54.38
2018-03-15T17:11:21.255Z,54.29
2018-03-15T17:12:20.248Z,54.86
2018-03-15T17:14:14.697Z,54.67
2018-03-15T17:15:15.640Z,54.38
2018-03-15T17:17:08.133Z,54.19
2018-03-15T17:18:08.662Z,54.29
2018-03-15T17:20:05.106Z,54.57
2018-03-15T17:21:03.582Z,54.77
2018-03-15T17:22:57.092Z,54.57
2018-03-15T17:23:57.570Z,54.19
2018-03-15T17:25:51.506Z,54.67
2018-03-15T17:26:52.003Z,54.77
2018-03-15T17:28:45.971Z,54.19
2018-03-15T17:29:45.892Z,54.48
2018-03-15T17:31:41.851Z,54.67
2018-03-15T17:32:40.405Z,54.19
2018-03-15T17:34:33.822Z,54.57
2018-03-15T17:35:34.343Z,54.74
2018-03-15T17:37:28.286Z,54.96
2018-03-15T17:38:28.273Z,54.57
2018-03-15T17:40:21.745Z,54.77
2018-03-15T17:41:21.735Z,54.17
2018-03-15T17:43:16.157Z,54.67
2018-03-15T17:44:16.184Z,54.55
2018-03-15T17:46:10.673Z,54.64
2018-03-15T17:47:11.125Z,55.12
2018-03-15T17:49:06.078Z,54.77
2018-03-15T17:50:05.021Z,55.12
2018-03-15T17:51:59.464Z,54.93
2018-03-15T17:52:59.469Z,55.31
2018-03-15T17:54:52.898Z,56.20
2018-03-15T17:55:53.419Z,57.50
2018-03-15T17:57:47.366Z,59.41
2018-03-15T17:58:47.349Z,60.94
2018-03-15T18:00:40.783Z,62.56
2018-03-15T18:01:42.313Z,63.80
2018-03-15T18:03:35.272Z,64.75
2018-03-15T18:04:35.233Z,65.89
2018-03-15T18:06:29.672Z,67.99
2018-03-15T18:07:29.686Z,68.76
2018-03-15T18:09:24.626Z,70.82
2018-03-15T18:10:24.117Z,71.39
2018-03-15T18:12:17.610Z,72.16
2018-03-15T18:13:17.601Z,72.25
2018-03-15T18:15:12.016Z,72.25
2018-03-15T18:16:12.017Z,71.68
2018-03-15T18:18:07.461Z,73.26
2018-03-15T18:19:06.480Z,73.45
2018-03-15T18:21:00.983Z,74.02
2018-03-15T18:22:01.432Z,73.55
2018-03-15T18:23:54.386Z,74.02
2018-03-15T18:24:54.380Z,74.60
2018-03-15T18:26:49.336Z,75.36
2018-03-15T18:27:48.824Z,75.07
2018-03-15T18:29:43.272Z,74.79
2018-03-15T18:30:43.770Z,74.88
2018-03-15T18:32:36.705Z,75.55
2018-03-15T18:33:36.732Z,75.45
2018-03-15T18:35:30.165Z,76.56
2018-03-15T18:36:32.626Z,75.89
2018-03-15T18:38:23.548Z,76.65
2018-03-15T18:39:23.551Z,76.65
2018-03-15T18:41:19.509Z,77.03
2018-03-15T18:42:17.977Z,77.70
2018-03-15T18:44:12.421Z,78.46
2018-03-15T18:45:12.430Z,78.27
2018-03-15T18:47:06.874Z,78.61
2018-03-15T18:48:06.858Z,78.90
2018-03-15T18:50:01.302Z,79.28
2018-03-15T18:51:01.297Z,80.33
2018-03-15T18:52:55.734Z,80.80
2018-03-15T18:53:55.760Z,80.61
2018-03-15T18:55:51.705Z,81.47
2018-03-15T18:56:51.704Z,81.76
2018-03-15T18:58:47.140Z,81.76
2018-03-15T18:59:46.088Z,82.23
2018-03-15T19:01:39.562Z,82.04
2018-03-15T19:02:39.528Z,82.32